Austin, TX (78725)

5:41 AM CDT on July 03, 2015 (GMT -0500)
Berdoll Farms | | Change Station
CLOSE
Current Station
Personal Weather Station
Location: Texas, TX
Elevation: 489 ft
Nearby Weather Stations

Elev 489 ft 30.17 °N, 97.61 °W | Updated 3 minutes ago

Partly Cloudy
Partly Cloudy
72.6 °F
Feels Like 72.6 °F
N
3.1
Wind Variable Wind from East

Today
High -- | Low -- °F
--% Chance of Precip.
Yesterday
High -- | Low -- °F
Precip. -- in
6:33 AM 8:36 PM
Full, 98% visible
Pressure 29.95 in
Visibility 6.0 miles
Clouds Few 600 ft
Few 2400 ft
Dew Point 70 °F
Humidity 92%
Rainfall 0.00 in
Snow Depth Not available.
UV 0 out of 12
Pollen 2.50 out of 12
Air Quality Not available.
Flu Activity Not available.
METAR KAUS 030953Z 18005KT 6SM BR FEW006 FEW024 24/24 A2998 RMK AO2 SLP141 T02390239

More Conditions Fewer Conditions

Pressure 29.95 in
Visibility 6.0 miles
Clouds Few 600 ft
Few 2400 ft
Dew Point 70 °F
Humidity 92%
Rainfall 0.00 in
Snow Depth Not available.
UV 0 out of 12
Pollen 2.50 out of 12
Air Quality Not available.
Flu Activity Not available.
METAR KAUS 030953Z 18005KT 6SM BR FEW006 FEW024 24/24 A2998 RMK AO2 SLP141 T02390239

More Conditions Fewer Conditions

10-Day Weather Forecast

×

Almanac

Astronomy

Jul. 03, 2015 Rise Set
Actual Time
Civil Twilight
Nautical Twilight
Astronomical Twilight
Moon
Length of Visible Light
Length of Day
Tomorrow will be .
, % of the Moon is Illuminated

Today's Extremes

State Highs State Lows

Community

WunderPhotos

Upload Photos

1,834,648 photos uploaded!

WunderBlogs® & News

Nearby

Air Quality

  Air Quality AQ Index Pollutant
Not available.

Snow Depth

Station Depth Elevation

Earthquake Activity

City Distance Mag. Time & Date
Minimum magnitude displayed is 2.5.

Coastal Water Temperatures

Place Temperature

Stations

Nearby Weather Stations

Station Location Temp. Windchill Dew Point Humidity Wind Precip. Elev Updated Type